Lincoln, California
Current Conditions -  °F | °C
As of 8:55 AM on Monday 22 Dec 2014 (Local Time) from KLHM Reporting Station
Overcast Overcast  
Wind Chill: 37°   Ceiling: 200
Heat Index: 43°   Visibility: 1mi
Dew Point: 41°   Wind: 10mph
Humidity: 93%   Direction: 340°NNW
Pressure: 30.28"   Gusts: NA
Location:  38.89°N, 121.29°W
Report Text: KLHM 221655Z AUTO 34009KT 1SM OVC002 06/05 A3028 RMK AO1
Loading
Personal Weather Stations






























Interactive Weather Map New forecast layout! Learn more

10-Day Weather Forecast

Advertisements
Track Severe Weather on mobile